Time;durP1;ratioP1;P1;durP2;ratioP2;P2;SDS_P1;SDS_P2;PMS_P1;PMS_P2;Temp;Humidity;BMP_temperature;BMP_pressure;BME280_temperature;BME280_humidity;BME280_pressure;Samples;Min_cycle;Max_cycle;Signal;HPM_P1;HPM_P2
2022/05/23 00:01:06;;;;;;;5.50;2.88;;;;;;;17.49;58.64;94435.50;5051247;28;20677;-83
2022/05/23 00:03:32;;;;;;;9.38;5.57;;;;;;;17.63;58.59;94462.44;5050994;28;20186;-83
2022/05/23 00:05:58;;;;;;;5.00;3.80;;;;;;;17.47;58.71;94440.25;5051092;28;20159;-83
2022/05/23 00:08:25;;;;;;;3.10;2.53;;;;;;;17.28;59.42;94407.25;5050925;28;20673;-83
2022/05/23 00:10:51;;;;;;;4.72;3.47;;;;;;;17.54;59.36;94450.69;5041679;28;20190;-82
2022/05/23 00:13:17;;;;;;;4.10;3.25;;;;;;;17.20;59.46;94421.06;5044313;28;20198;-82
2022/05/23 00:19:04;;;;;;;4.07;2.95;;;;;;;17.01;59.88;94402.13;5046144;28;20756;-83
2022/05/23 00:21:30;;;;;;;4.38;3.03;;;;;;;17.20;60.16;94447.69;5050674;28;20199;-83
2022/05/23 00:23:56;;;;;;;5.60;2.88;;;;;;;16.68;60.63;94375.97;5050984;28;20622;-83
2022/05/23 00:26:22;;;;;;;4.07;2.78;;;;;;;16.84;61.45;94410.31;5040218;28;20179;-83
2022/05/23 00:28:49;;;;;;;3.50;2.47;;;;;;;17.01;62.79;94444.69;5038434;28;20665;-83
2022/05/23 00:31:15;;;;;;;4.65;2.97;;;;;;;16.86;62.51;94426.03;5036656;28;20176;-82
2022/05/23 00:36:29;;;;;;;4.20;2.95;;;;;;;16.74;62.44;94434.19;5039256;28;20708;-83
2022/05/23 00:38:55;;;;;;;4.05;3.03;;;;;;;16.52;63.09;94421.03;5046677;28;20167;-81
2022/05/23 00:44:24;;;;;;;4.35;3.45;;;;;;;16.68;62.96;94447.72;5054171;28;20266;-81
2022/05/23 00:46:57;;;;;;;6.32;3.75;;;;;;;16.71;62.48;94450.66;5054070;28;20191;-81
2022/05/23 00:49:26;;;;;;;7.05;2.92;;;;;;;16.70;62.50;94451.72;5053116;28;20167;-81
2022/05/23 00:51:52;;;;;;;8.15;3.58;;;;;;;16.71;62.30;94453.31;5054226;28;20558;-81
2022/05/23 00:54:21;;;;;;;5.50;3.63;;;;;;;16.69;62.42;94452.75;5054407;28;20587;-81
2022/05/23 00:56:50;;;;;;;5.80;3.40;;;;;;;16.69;62.08;94457.31;5036330;28;20185;-82
2022/05/23 00:59:25;;;;;;;4.30;2.80;;;;;;;16.54;62.00;94450.00;5054174;28;20245;-82
2022/05/23 01:01:51;;;;;;;3.75;2.80;;;;;;;16.61;62.34;94450.59;5052359;28;20265;-83
2022/05/23 01:04:17;;;;;;;4.15;3.05;;;;;;;16.66;62.47;94460.47;5054045;28;20242;-82
2022/05/23 01:06:43;;;;;;;4.97;2.85;;;;;;;16.56;63.15;94435.41;5053883;28;20175;-82
2022/05/23 01:09:10;;;;;;;3.03;2.53;;;;;;;16.75;62.92;94462.38;5054051;28;20171;-82
2022/05/23 01:11:36;;;;;;;3.53;2.70;;;;;;;16.54;62.96;94434.88;5045269;28;20191;-82
2022/05/23 01:14:01;;;;;;;5.38;2.97;;;;;;;16.72;62.88;94465.56;5043812;28;20187;-82
2022/05/23 01:16:27;;;;;;;4.18;3.10;;;;;;;16.66;63.16;94458.63;5044639;28;20232;-82
2022/05/23 01:18:53;;;;;;;4.50;3.10;;;;;;;16.57;63.73;94441.53;5042803;28;20223;-82
2022/05/23 01:21:31;;;;;;;5.32;3.88;;;;;;;16.41;64.16;94421.25;5041900;28;20171;-82
2022/05/23 01:24:11;;;;;;;4.00;3.40;;;;;;;16.46;64.28;94440.66;5039138;28;20207;-83
2022/05/23 01:26:37;;;;;;;7.43;3.53;;;;;;;16.14;65.13;94394.78;5052838;28;20174;-82
2022/05/23 01:29:10;;;;;;;6.30;3.20;;;;;;;16.15;65.09;94415.78;5022981;28;20176;-82
2022/05/23 01:31:36;;;;;;;5.28;3.67;;;;;;;16.15;65.47;94436.22;5039538;28;20167;-82
2022/05/23 01:34:01;;;;;;;3.70;3.35;;;;;;;15.68;65.99;94378.53;5041955;28;20587;-82
2022/05/23 01:36:27;;;;;;;6.05;3.08;;;;;;;15.70;66.34;94375.63;5042724;28;21013;-81
2022/05/23 01:38:52;;;;;;;4.78;3.38;;;;;;;15.94;66.58;94415.88;5042703;28;20180;-81
2022/05/23 01:41:18;;;;;;;3.30;2.97;;;;;;;15.90;67.08;94417.47;5048471;28;20199;-81
2022/05/23 01:43:43;;;;;;;7.75;3.83;;;;;;;15.87;67.71;94434.69;5034928;28;20175;-81
2022/05/23 01:46:09;;;;;;;7.50;4.25;;;;;;;15.79;67.94;94430.66;5046680;28;20194;-81
2022/05/23 01:48:34;;;;;;;8.23;5.10;;;;;;;15.68;68.17;94433.47;5040854;28;20179;-81
2022/05/23 01:50:59;;;;;;;10.00;6.50;;;;;;;15.55;69.09;94433.88;5052981;28;20173;-81
2022/05/23 01:53:26;;;;;;;9.10;5.93;;;;;;;15.49;68.86;94425.03;5045821;28;20573;-81
2022/05/23 01:55:52;;;;;;;5.38;3.72;;;;;;;15.49;68.66;94433.78;5043228;28;20213;-81
2022/05/23 02:01:13;;;;;;;8.30;3.92;;;;;;;15.39;68.76;94409.81;5040976;28;20249;-81
2022/05/23 02:01:15;;;;;;;11.45;6.65;;;;;;;15.43;69.53;94426.84;5052964;28;20198;-81
2022/05/23 02:03:45;;;;;;;6.38;4.45;;;;;;;15.31;70.17;94418.22;5053034;28;20163;-81
2022/05/23 02:06:12;;;;;;;9.00;4.10;;;;;;;15.41;70.68;94434.25;5052665;28;20282;-81
2022/05/23 02:08:38;;;;;;;8.38;3.58;;;;;;;15.44;70.91;94431.09;5051505;28;20439;-81
2022/05/23 02:11:06;;;;;;;8.07;3.45;;;;;;;15.39;70.69;94433.69;5053007;28;20625;-81
2022/05/23 02:13:38;;;;;;;6.03;4.00;;;;;;;15.28;70.55;94424.06;5053172;28;20687;-81
2022/05/23 02:16:04;;;;;;;6.03;4.03;;;;;;;15.26;70.44;94423.50;5052618;28;20241;-81
2022/05/23 02:18:30;;;;;;;12.93;7.88;;;;;;;15.33;70.91;94431.25;5052628;28;20226;-81
2022/05/23 02:20:56;;;;;;;24.38;13.50;;;;;;;15.31;70.90;94428.03;5052406;28;20196;-80
2022/05/23 02:23:22;;;;;;;31.45;19.30;;;;;;;15.22;71.48;94421.63;5043084;28;20175;-81
2022/05/23 02:25:47;;;;;;;11.55;7.10;;;;;;;15.27;71.34;94445.53;5052394;28;20183;-82
2022/05/23 02:28:13;;;;;;;16.95;9.95;;;;;;;15.19;71.48;94428.22;5034527;28;20178;-82
2022/05/23 02:30:39;;;;;;;6.78;4.78;;;;;;;15.26;71.73;94434.09;5052431;28;20185;-81
2022/05/23 02:33:05;;;;;;;14.85;8.63;;;;;;;15.26;71.91;94435.97;5052172;28;20600;-82
2022/05/23 02:35:30;;;;;;;29.27;17.27;;;;;;;15.07;72.23;94399.19;5052462;28;20175;-82
2022/05/23 02:37:56;;;;;;;7.73;5.30;;;;;;;15.33;71.87;94423.28;5045048;28;20178;-82
2022/05/23 02:40:23;;;;;;;9.40;5.90;;;;;;;15.41;71.56;94417.53;5043808;28;20186;-82
2022/05/23 02:42:48;;;;;;;8.93;5.57;;;;;;;15.52;71.82;94435.16;5045235;28;20171;-81
2022/05/23 02:45:14;;;;;;;5.63;4.53;;;;;;;15.23;71.72;94386.88;5043328;28;20172;-82
2022/05/23 02:47:40;;;;;;;9.00;6.10;;;;;;;15.65;71.87;94448.06;5038899;28;20650;-82
2022/05/23 02:50:08;;;;;;;6.38;5.10;;;;;;;15.75;71.86;94436.69;5038355;28;20175;-82
2022/05/23 02:52:33;;;;;;;10.82;6.60;;;;;;;15.78;71.58;94423.75;5038376;28;20195;-82
2022/05/23 02:54:59;;;;;;;9.65;6.63;;;;;;;15.92;71.33;94437.38;5040580;28;20191;-82
2022/05/23 02:57:24;;;;;;;15.80;9.57;;;;;;;16.06;70.84;94433.25;5045466;28;20186;-82
2022/05/23 02:59:50;;;;;;;5.93;4.68;;;;;;;16.14;70.83;94440.75;5051479;28;20175;-82
2022/05/23 03:05:00;;;;;;;8.55;5.53;;;;;;;16.19;69.94;94413.41;5051413;28;20178;-82
2022/05/23 03:07:25;;;;;;;5.03;3.78;;;;;;;16.20;69.21;94391.91;5051596;28;20163;-83
2022/05/23 03:09:51;;;;;;;7.50;4.95;;;;;;;16.48;68.82;94435.09;5051383;28;20187;-82
2022/05/23 03:12:16;;;;;;;10.40;6.45;;;;;;;16.46;68.80;94413.28;5036982;28;20484;-83
2022/05/23 03:14:41;;;;;;;7.93;5.40;;;;;;;16.66;68.28;94437.34;5045208;28;20566;-82
2022/05/23 03:17:07;;;;;;;5.10;3.95;;;;;;;16.27;68.01;94370.41;5022790;28;20256;-82
2022/05/23 03:19:37;;;;;;;14.63;6.93;;;;;;;16.59;67.98;94416.31;5040516;28;20191;-81
2022/05/23 03:27:33;;;;;;;7.38;5.25;;;;;;;16.92;69.33;94401.03;5051194;28;20224;-81
2022/05/23 03:29:58;;;;;;;9.38;4.93;;;;;;;17.01;70.27;94404.78;5051250;28;20171;-82
2022/05/23 03:32:24;;;;;;;8.75;6.65;;;;;;;17.09;71.44;94424.75;5047285;28;20231;-82
2022/05/23 03:34:49;;;;;;;12.52;7.75;;;;;;;17.10;71.45;94423.69;5040189;28;20170;-82
2022/05/23 03:37:15;;;;;;;11.88;7.03;;;;;;;17.10;70.33;94431.69;5051508;28;20174;-82
2022/05/23 03:39:40;;;;;;;7.85;4.60;;;;;;;17.05;70.17;94407.72;5050990;28;20258;-82
2022/05/23 03:42:06;;;;;;;5.93;4.70;;;;;;;16.92;70.20;94375.25;5050946;28;20159;-82
2022/05/23 03:44:32;;;;;;;15.23;7.47;;;;;;;16.98;70.54;94376.84;5051081;28;20170;-82
2022/05/23 03:46:57;;;;;;;13.18;5.82;;;;;;;16.88;70.88;94360.88;5050634;28;20579;-82
2022/05/23 03:49:23;;;;;;;8.75;6.25;;;;;;;16.76;71.00;94339.06;5051402;28;20193;-82
2022/05/23 03:51:48;;;;;;;15.93;10.70;;;;;;;17.27;71.63;94426.94;5051944;28;20167;-83
2022/05/23 03:54:14;;;;;;;10.27;6.47;;;;;;;17.25;70.54;94429.06;5050694;28;20241;-83
2022/05/23 03:56:40;;;;;;;10.40;6.88;;;;;;;17.27;71.06;94429.59;5051074;28;20167;-84
2022/05/23 03:59:06;;;;;;;17.88;8.40;;;;;;;17.26;70.64;94420.00;5051000;28;20178;-81
2022/05/23 04:01:32;;;;;;;14.48;8.25;;;;;;;17.18;70.12;94396.59;5050747;28;20171;-81
2022/05/23 04:03:58;;;;;;;12.55;8.80;;;;;;;17.10;70.06;94386.47;5050193;28;20267;-82
2022/05/23 04:06:23;;;;;;;9.70;5.97;;;;;;;17.33;69.38;94412.56;5050751;28;20167;-81
2022/05/23 04:08:49;;;;;;;10.07;5.82;;;;;;;17.46;69.37;94430.72;5050681;28;20186;-83
2022/05/23 04:11:14;;;;;;;8.18;5.32;;;;;;;17.13;69.32;94359.31;5032819;28;20233;-85
2022/05/23 04:13:40;;;;;;;10.90;5.35;;;;;;;17.11;69.59;94359.59;5052262;28;20195;-83
2022/05/23 04:16:06;;;;;;;15.57;6.03;;;;;;;17.59;70.52;94424.84;5054460;28;20178;-81
2022/05/23 04:18:33;;;;;;;12.48;6.50;;;;;;;17.71;68.95;94400.69;5054320;28;20246;-81
2022/05/23 04:21:01;;;;;;;9.13;4.10;;;;;;;18.13;67.13;94426.22;5054474;28;20189;-79
2022/05/23 04:23:27;;;;;;;7.50;4.18;;;;;;;18.43;67.56;94420.84;5054211;28;20166;-82
2022/05/23 04:25:53;;;;;;;22.27;8.80;;;;;;;18.70;65.63;94389.34;5054544;28;20552;-79
2022/05/23 04:28:20;;;;;;;9.07;5.07;;;;;;;19.02;63.63;94390.81;5054452;28;20175;-80
2022/05/23 04:30:46;;;;;;;11.82;6.80;;;;;;;19.39;62.79;94425.81;5053589;28;20179;-79
2022/05/23 04:35:58;;;;;;;7.63;3.80;;;;;;;19.21;62.76;94395.22;5054683;28;20186;-84
2022/05/23 04:38:24;;;;;;;21.55;10.73;;;;;;;19.38;62.44;94432.22;5026062;28;20179;-84
2022/05/23 04:40:49;;;;;;;25.45;16.40;;;;;;;18.91;62.63;94366.06;5033780;28;20244;-82
2022/05/23 04:43:15;;;;;;;23.20;14.43;;;;;;;19.12;63.01;94401.41;5037055;28;20230;-82
2022/05/23 04:45:42;;;;;;;8.27;4.85;;;;;;;19.15;61.95;94420.34;5048012;28;20167;-83
2022/05/23 04:50:51;;;;;;;8.13;3.42;;;;;;;19.00;62.20;94392.94;5053214;28;20205;-83
2022/05/23 04:53:18;;;;;;;10.50;4.53;;;;;;;18.90;62.30;94393.00;5036090;28;20214;-83
2022/05/23 04:55:44;;;;;;;16.75;11.32;;;;;;;18.82;62.28;94405.84;5053913;28;20205;-83
2022/05/23 04:58:11;;;;;;;26.55;17.60;;;;;;;19.13;62.40;94405.69;5053932;28;20198;-83
2022/05/23 05:00:39;;;;;;;11.82;7.03;;;;;;;19.79;59.34;94389.28;5050674;28;20162;-83
2022/05/23 05:03:06;;;;;;;10.80;2.85;;;;;;;20.76;55.02;94421.28;5047963;28;20236;-83
2022/05/23 05:05:33;;;;;;;6.97;3.00;;;;;;;21.02;54.00;94403.81;5053625;28;20174;-83
2022/05/23 05:08:00;;;;;;;4.05;2.28;;;;;;;21.21;53.16;94423.41;5033271;28;20175;-83
2022/05/23 05:10:26;;;;;;;6.63;2.58;;;;;;;21.08;53.18;94418.75;5050545;28;20657;-83
2022/05/23 05:12:53;;;;;;;7.82;4.68;;;;;;;20.78;53.00;94386.97;5053084;28;20202;-83
2022/05/23 05:15:20;;;;;;;10.23;5.15;;;;;;;20.88;54.14;94408.28;5050702;28;20167;-82
2022/05/23 05:17:46;;;;;;;8.63;1.98;;;;;;;20.96;52.24;94388.91;5053511;28;20222;-83
2022/05/23 05:20:13;;;;;;;6.53;2.33;;;;;;;21.65;49.38;94409.69;5053444;28;20191;-83
2022/05/23 05:22:38;;;;;;;5.30;2.40;;;;;;;22.56;47.42;94400.16;5052474;28;20178;-83
2022/05/23 05:25:06;;;;;;;4.53;3.20;;;;;;;23.44;44.15;94397.34;5045060;28;20558;-83
2022/05/23 05:27:32;;;;;;;4.47;2.50;;;;;;;24.24;42.70;94362.41;5043294;28;20179;-83
2022/05/23 05:29:59;;;;;;;4.32;2.30;;;;;;;25.23;40.06;94400.69;5041445;28;20213;-83
2022/05/23 05:32:40;;;;;;;4.70;1.98;;;;;;;25.74;39.43;94365.72;5045047;28;20175;-83
2022/05/23 05:35:19;;;;;;;6.78;2.83;;;;;;;26.53;35.45;94392.28;5051710;28;20167;-83
2022/05/23 05:38:13;;;;;;;2.22;1.58;;;;;;;26.65;35.70;94388.91;5048356;28;20260;-83
2022/05/23 05:40:39;;;;;;;6.00;1.90;;;;;;;27.14;35.57;94387.47;5035902;28;20199;-83
2022/05/23 05:43:10;;;;;;;12.93;2.65;;;;;;;27.41;36.40;94405.13;5041216;28;20650;-83
2022/05/23 05:45:43;;;;;;;14.90;2.83;;;;;;;27.58;34.35;94415.06;5049135;28;20167;-83
2022/05/23 05:48:10;;;;;;;10.80;3.55;;;;;;;26.67;36.56;94397.47;5052412;28;20171;-83
2022/05/23 05:50:39;;;;;;;7.57;2.20;;;;;;;25.72;37.74;94381.41;5052940;28;20276;-83
2022/05/23 05:53:09;;;;;;;7.78;2.75;;;;;;;25.19;38.37;94425.56;5034107;28;20724;-84
2022/05/23 05:55:37;;;;;;;2.45;1.80;;;;;;;24.25;40.06;94428.56;5034673;28;20531;-84
2022/05/23 05:58:03;;;;;;;3.00;1.70;;;;;;;23.12;41.54;94374.13;5049969;28;20568;-83
2022/05/23 06:00:28;;;;;;;8.27;2.92;;;;;;;22.92;44.41;94421.75;5039334;28;20668;-83
2022/05/23 06:02:54;;;;;;;3.40;2.13;;;;;;;22.55;45.38;94429.97;5022392;28;20168;-83
2022/05/23 06:05:20;;;;;;;5.38;2.92;;;;;;;21.99;46.32;94377.28;5041276;28;20533;-83
2022/05/23 06:13:13;;;;;;;4.75;2.13;;;;;;;21.42;47.82;94373.88;5051561;28;20261;-83
2022/05/23 06:15:39;;;;;;;11.90;2.50;;;;;;;21.44;49.43;94385.09;5051989;28;20175;-83
2022/05/23 06:18:04;;;;;;;6.22;2.60;;;;;;;21.77;50.70;94404.69;5052147;28;20651;-83
2022/05/23 06:20:30;;;;;;;9.00;2.50;;;;;;;21.93;49.75;94396.41;5052041;28;20179;-83
2022/05/23 06:22:56;;;;;;;6.03;2.38;;;;;;;22.05;49.12;94386.84;5052165;28;20163;-83
2022/05/23 06:25:23;;;;;;;3.10;2.03;;;;;;;22.47;49.26;94387.72;5051844;28;20167;-83
2022/05/23 06:27:48;;;;;;;10.18;2.25;;;;;;;22.87;47.65;94370.88;5044293;28;20171;-84
2022/05/23 06:30:16;;;;;;;4.32;2.53;;;;;;;23.31;45.33;94369.41;5051107;28;20277;-83
2022/05/23 06:32:43;;;;;;;5.47;2.40;;;;;;;23.72;43.89;94382.75;5033425;28;20685;-84
2022/05/23 06:35:09;;;;;;;3.63;2.58;;;;;;;23.95;42.60;94381.66;5051119;28;20210;-84
2022/05/23 06:37:36;;;;;;;8.20;2.78;;;;;;;24.18;41.70;94385.13;5051430;28;20167;-84
2022/05/23 06:40:06;;;;;;;4.07;2.28;;;;;;;24.54;42.82;94381.56;5050102;28;20254;-83
2022/05/23 06:42:32;;;;;;;7.00;2.70;;;;;;;24.98;41.42;94376.06;5050191;28;20178;-83
2022/05/23 06:44:59;;;;;;;13.70;1.98;;;;;;;25.48;40.79;94343.31;5041250;28;20573;-84
2022/05/23 06:47:25;;;;;;;5.10;2.33;;;;;;;26.21;41.24;94365.81;5025794;28;20632;-84
2022/05/23 06:49:50;;;;;;;3.08;2.00;;;;;;;26.67;35.89;94370.47;5038371;28;20179;-84
2022/05/23 06:52:16;;;;;;;5.28;2.40;;;;;;;26.36;36.98;94368.03;5039626;28;20271;-84
2022/05/23 06:54:42;;;;;;;6.40;2.05;;;;;;;26.49;39.21;94374.34;5042883;28;20167;-83
2022/05/23 06:57:08;;;;;;;6.50;2.53;;;;;;;26.79;38.30;94367.09;5050008;28;20182;-83
2022/05/23 06:59:34;;;;;;;3.88;2.00;;;;;;;27.23;38.54;94363.88;5051094;28;20615;-84
2022/05/23 07:02:01;;;;;;;12.27;2.75;;;;;;;27.08;35.42;94377.16;5047513;28;20274;-84
2022/05/23 07:12:19;;;;;;;2.42;1.50;;;;;;;27.05;36.25;94370.50;5051134;28;20171;-90
2022/05/23 07:12:40;;;;;;;20.80;2.50;;;;;;;26.39;37.83;94370.09;5051069;28;20759;-84
2022/05/23 07:15:06;;;;;;;4.85;1.80;;;;;;;26.66;37.62;94385.09;5051038;28;20167;-84
2022/05/23 07:17:34;;;;;;;4.93;2.58;;;;;;;26.52;36.97;94350.19;5051288;28;20276;-83
2022/05/23 07:20:00;;;;;;;7.13;2.00;;;;;;;26.73;35.63;94379.19;5046784;28;20187;-84
2022/05/23 07:22:26;;;;;;;3.58;1.90;;;;;;;25.88;36.18;94311.59;5041723;28;20203;-83
2022/05/23 07:24:51;;;;;;;8.20;2.45;;;;;;;25.81;38.91;94309.38;5040906;28;20662;-84
2022/05/23 07:27:18;;;;;;;6.28;2.83;;;;;;;26.41;38.37;94378.66;5039080;28;20175;-83
2022/05/23 07:29:43;;;;;;;5.15;2.10;;;;;;;26.49;38.55;94377.84;5045764;28;20215;-80
2022/05/23 07:32:15;;;;;;;6.60;2.30;;;;;;;26.58;38.19;94375.91;5044494;28;20206;-80
2022/05/23 07:34:41;;;;;;;4.68;2.10;;;;;;;26.65;36.53;94354.59;5046002;28;20198;-81
2022/05/23 07:37:07;;;;;;;5.75;1.60;;;;;;;27.00;35.40;94386.88;5050841;28;20182;-82
2022/05/23 07:39:35;;;;;;;1.77;1.40;;;;;;;27.43;32.90;94379.31;5049927;28;20189;-84
2022/05/23 07:42:01;;;;;;;4.82;1.40;;;;;;;27.62;33.59;94388.94;5035619;28;20193;-83
2022/05/23 07:44:26;;;;;;;7.68;1.65;;;;;;;27.59;32.18;94349.81;5046217;28;20203;-84
2022/05/23 07:46:53;;;;;;;3.00;1.42;;;;;;;27.92;33.18;94385.06;5042553;28;20210;-82
2022/05/23 07:49:18;;;;;;;6.65;1.77;;;;;;;28.08;30.90;94380.59;5042315;28;20233;-83
2022/05/23 07:51:44;;;;;;;5.28;1.52;;;;;;;27.93;30.91;94354.16;5046706;28;20186;-82
2022/05/23 08:02:22;;;;;;;5.47;1.80;;;;;;;28.28;32.81;94386.34;5054875;28;20690;-80
2022/05/23 08:04:48;;;;;;;7.40;1.90;;;;;;;28.78;31.79;94388.84;5054546;28;20190;-80
2022/05/23 08:07:14;;;;;;;3.75;1.70;;;;;;;29.11;32.80;94380.63;5043123;28;20176;-80
2022/05/23 08:09:39;;;;;;;10.85;1.70;;;;;;;29.07;32.24;94347.97;5044012;28;20229;-79
2022/05/23 08:12:06;;;;;;;10.15;1.48;;;;;;;29.68;32.48;94382.38;5054630;28;20205;-81
2022/05/23 08:14:32;;;;;;;14.18;2.30;;;;;;;29.93;30.25;94364.91;5048241;28;20198;-80
2022/05/23 08:16:58;;;;;;;4.47;2.03;;;;;;;29.59;29.36;94361.59;5044303;28;20187;-81
2022/05/23 08:19:24;;;;;;;5.95;1.83;;;;;;;29.17;30.21;94384.69;5051653;28;20227;-80
2022/05/23 08:21:52;;;;;;;7.68;2.13;;;;;;;28.58;30.29;94376.94;5042893;28;20198;-80
2022/05/23 08:24:18;;;;;;;13.80;2.40;;;;;;;28.32;32.38;94369.09;5053587;28;20251;-81
2022/05/23 08:26:44;;;;;;;2.83;1.67;;;;;;;28.71;33.82;94377.75;5053201;28;20262;-81
2022/05/23 08:29:10;;;;;;;2.22;1.60;;;;;;;29.07;32.11;94361.53;5054451;28;20233;-80
2022/05/23 08:31:37;;;;;;;5.35;2.50;;;;;;;29.40;31.63;94372.28;5054383;28;20547;-80
2022/05/23 08:34:03;;;;;;;6.60;1.90;;;;;;;29.44;31.09;94364.25;5053881;28;20194;-78
2022/05/23 08:36:28;;;;;;;7.65;1.80;;;;;;;29.48;29.78;94363.22;5051860;28;20182;-80
2022/05/23 08:38:54;;;;;;;12.13;2.33;;;;;;;28.51;29.96;94355.03;5042906;28;20191;-79
2022/05/23 08:41:26;;;;;;;13.68;1.88;;;;;;;28.41;29.29;94363.59;5048816;28;20178;-79
2022/05/23 08:44:22;;;;;;;11.57;1.90;;;;;;;28.43;30.42;94378.38;5046477;28;20164;-79
2022/05/23 08:47:05;;;;;;;8.88;1.83;;;;;;;28.48;30.86;94380.88;5042751;28;20182;-79
2022/05/23 08:49:47;;;;;;;5.97;1.40;;;;;;;28.36;32.21;94372.72;5053608;28;20183;-79
2022/05/23 08:52:15;;;;;;;9.15;1.75;;;;;;;28.12;31.42;94375.28;5050924;28;20897;-80
2022/05/23 08:54:56;;;;;;;5.07;1.70;;;;;;;28.02;30.73;94371.09;5048212;28;20203;-79
2022/05/23 08:57:51;;;;;;;4.28;2.17;;;;;;;27.71;30.44;94360.69;5048822;28;20239;-79
2022/05/23 09:00:23;;;;;;;4.38;2.25;;;;;;;27.16;29.75;94360.88;5037345;28;20194;-79
2022/05/23 09:02:55;;;;;;;3.17;1.50;;;;;;;26.76;31.33;94355.03;5052356;28;20257;-77
2022/05/23 09:05:29;;;;;;;4.03;2.13;;;;;;;26.52;33.31;94352.91;5046655;28;20187;-80
2022/05/23 09:07:58;;;;;;;3.50;1.90;;;;;;;25.99;32.39;94355.22;5045368;28;20183;-79
2022/05/23 09:10:35;;;;;;;4.63;1.70;;;;;;;25.43;33.82;94355.03;5053153;28;20171;-79
2022/05/23 09:13:01;;;;;;;13.32;2.33;;;;;;;25.17;34.49;94319.19;5046859;28;20207;-81
2022/05/23 09:15:26;;;;;;;2.92;1.63;;;;;;;24.98;32.52;94351.81;5048549;28;20190;-84
2022/05/23 09:17:58;;;;;;;4.72;1.80;;;;;;;24.86;36.67;94343.50;5053577;28;20292;-85
2022/05/23 09:20:35;;;;;;;2.85;1.67;;;;;;;24.87;36.67;94320.06;5033803;28;20693;-86
2022/05/23 09:23:07;;;;;;;2.38;1.75;;;;;;;24.86;36.14;94316.56;5052886;28;20186;-86
2022/05/23 09:25:33;;;;;;;4.57;1.50;;;;;;;24.74;34.87;94313.69;5032616;28;20183;-86
2022/05/23 09:28:22;;;;;;;7.35;1.60;;;;;;;24.49;39.33;94276.72;5035023;28;20564;-85
2022/05/23 09:30:56;;;;;;;5.50;1.65;;;;;;;24.99;39.31;94326.47;5034366;28;20166;-85
2022/05/23 09:33:22;;;;;;;3.13;1.58;;;;;;;25.12;38.55;94312.06;5051461;28;20195;-86
2022/05/23 09:36:07;;;;;;;8.20;2.33;;;;;;;25.50;39.01;94333.03;5053095;28;20171;-85
2022/05/23 09:38:45;;;;;;;10.82;7.25;;;;;;;25.54;38.21;94334.75;5052565;28;20171;-86
2022/05/23 09:47:44;;;;;;;3.33;2.60;;;;;;;25.32;36.46;94309.84;5035202;28;20674;-86
2022/05/23 09:49:46;;;;;;;7.65;4.15;;;;;;;25.75;39.40;94293.69;5053230;28;20255;-85
2022/05/23 09:52:28;;;;;;;5.55;2.20;;;;;;;26.02;39.21;94322.22;5052488;28;20262;-85
2022/05/23 09:54:57;;;;;;;2.60;2.22;;;;;;;26.27;39.26;94324.09;5049632;28;20195;-85
2022/05/23 09:57:29;;;;;;;8.00;1.73;;;;;;;26.33;35.53;94328.19;5049983;28;20662;-86
2022/05/23 10:00:00;;;;;;;1.95;1.63;;;;;;;26.10;37.32;94318.69;5034834;28;20190;-85
2022/05/23 10:02:41;;;;;;;6.20;2.13;;;;;;;25.95;38.73;94313.81;5034774;28;20241;-86
2022/05/23 10:05:22;;;;;;;3.88;1.90;;;;;;;26.02;37.87;94312.22;5052566;28;20171;-86
2022/05/23 10:07:51;;;;;;;4.22;1.95;;;;;;;26.16;36.41;94304.72;5052419;28;20194;-86
2022/05/23 10:10:26;;;;;;;4.70;1.50;;;;;;;26.15;35.69;94311.22;5034045;28;20190;-85
2022/05/23 10:13:30;;;;;;;4.78;1.95;;;;;;;26.32;36.30;94315.81;5033749;28;20226;-85
2022/05/23 10:15:57;;;;;;;3.10;1.58;;;;;;;26.32;36.09;94315.00;5050549;28;20672;-87
2022/05/23 10:18:26;;;;;;;2.78;1.95;;;;;;;26.09;36.52;94269.34;5025676;28;20641;-86
2022/05/23 10:20:53;;;;;;;3.30;1.52;;;;;;;26.32;36.56;94306.91;5047875;28;20207;-86
2022/05/23 10:23:26;;;;;;;2.40;2.08;;;;;;;26.41;34.06;94310.38;5043899;28;20184;-86
2022/05/23 10:26:04;;;;;;;2.10;1.27;;;;;;;26.39;35.25;94305.28;5050457;28;20684;-86
2022/05/23 10:28:48;;;;;;;5.00;1.60;;;;;;;26.22;35.38;94305.31;5052055;28;20189;-86
2022/05/23 10:31:22;;;;;;;4.38;1.88;;;;;;;26.13;36.62;94269.47;5030005;28;20198;-86
2022/05/23 10:33:59;;;;;;;4.35;1.65;;;;;;;25.78;36.41;94194.03;5048634;28;20190;-86
2022/05/23 10:36:26;;;;;;;6.63;1.90;;;;;;;26.48;36.19;94303.34;5041807;28;20179;-87
2022/05/23 10:42:07;;;;;;;3.67;1.98;;;;;;;26.51;35.66;94278.41;5049092;28;20312;-86
2022/05/23 10:45:17;;;;;;;5.88;1.60;;;;;;;26.47;35.12;94274.75;5033149;28;20210;-86
2022/05/23 10:48:04;;;;;;;3.28;1.70;;;;;;;26.53;35.50;94288.88;5005126;28;21875;-85
2022/05/23 10:50:48;;;;;;;2.65;1.50;;;;;;;26.49;33.78;94283.34;5050636;28;20174;-86
2022/05/23 10:53:48;;;;;;;1.30;1.20;;;;;;;26.32;35.64;94267.22;5032235;28;20194;-86
2022/05/23 10:56:55;;;;;;;2.33;1.58;;;;;;;26.44;33.37;94275.44;5050992;28;20661;-85
2022/05/23 10:59:42;;;;;;;2.05;1.20;;;;;;;26.53;33.84;94270.78;5012965;28;20265;-86
2022/05/23 11:02:45;;;;;;;2.15;1.40;;;;;;;26.62;34.39;94274.22;5044039;28;20251;-86
2022/05/23 11:05:43;;;;;;;4.03;1.45;;;;;;;26.61;34.09;94271.84;5050987;28;20166;-86
2022/05/23 11:08:35;;;;;;;3.33;1.25;;;;;;;26.60;31.64;94283.78;5051014;28;20179;-86
2022/05/23 11:11:38;;;;;;;1.30;1.20;;;;;;;26.54;31.83;94275.06;5032338;28;20187;-87
2022/05/23 11:14:20;;;;;;;1.67;1.42;;;;;;;26.52;32.43;94271.91;5050387;28;20720;-86
2022/05/23 11:17:16;;;;;;;2.13;1.60;;;;;;;26.59;33.42;94276.78;5033401;28;20184;-85
2022/05/23 11:20:08;;;;;;;1.48;1.10;;;;;;;26.52;33.47;94255.69;5030875;28;20735;-85
2022/05/23 11:22:43;;;;;;;3.80;1.60;;;;;;;26.49;33.63;94245.53;5050874;28;20533;-86
2022/05/23 11:25:27;;;;;;;2.63;1.48;;;;;;;26.63;34.61;94250.72;5051151;28;20380;-85
2022/05/23 11:33:58;;;;;;;3.05;1.25;;;;;;;26.42;32.78;94253.34;5050893;28;22327;-86
2022/05/23 11:36:44;;;;;;;2.05;1.50;;;;;;;26.51;32.84;94274.91;5051106;28;20175;-85
2022/05/23 11:39:48;;;;;;;6.15;1.40;;;;;;;26.43;33.63;94252.25;5032035;28;20183;-85
2022/05/23 11:42:18;;;;;;;1.38;1.27;;;;;;;26.45;34.46;94260.03;5050797;28;20174;-86
2022/05/23 11:44:49;;;;;;;2.38;1.33;;;;;;;26.62;34.23;94260.72;5051402;28;20179;-86
2022/05/23 11:47:21;;;;;;;5.25;1.40;;;;;;;26.61;33.42;94261.84;5049849;28;22168;-86
2022/05/23 11:50:13;;;;;;;2.03;1.55;;;;;;;26.60;35.26;94262.97;5032281;28;20179;-85
2022/05/23 11:53:06;;;;;;;2.05;1.50;;;;;;;26.48;33.23;94237.75;5022320;28;20190;-85
2022/05/23 11:55:50;;;;;;;4.10;1.60;;;;;;;26.77;32.79;94264.78;5030352;28;20179;-86
2022/05/23 11:58:39;;;;;;;9.75;1.85;;;;;;;26.73;32.38;94268.44;5049730;28;20182;-86
2022/05/23 12:01:05;;;;;;;7.25;2.17;;;;;;;26.65;33.30;94268.16;5046553;28;20209;-86
2022/05/23 12:03:58;;;;;;;7.65;1.75;;;;;;;26.70;33.47;94264.50;5032360;28;20682;-87
2022/05/23 12:06:23;;;;;;;10.50;1.95;;;;;;;26.73;34.48;94263.03;5022878;28;20195;-86
2022/05/23 12:09:04;;;;;;;5.60;1.60;;;;;;;26.83;34.51;94265.34;5029929;28;20684;-86
2022/05/23 12:11:30;;;;;;;4.50;1.48;;;;;;;26.88;34.73;94252.47;5032261;28;20179;-86
2022/05/23 12:14:13;;;;;;;3.67;1.50;;;;;;;26.62;34.39;94254.53;5032963;28;20290;-87
2022/05/23 12:17:05;;;;;;;2.70;1.52;;;;;;;26.71;33.95;94262.59;5038402;28;20183;-85
2022/05/23 12:19:40;;;;;;;7.22;1.67;;;;;;;26.81;33.48;94259.50;5032583;28;20218;-85
2022/05/23 12:22:26;;;;;;;1.60;1.50;;;;;;;26.89;33.28;94251.34;5050604;28;20186;-86
2022/05/23 12:25:10;;;;;;;3.58;1.70;;;;;;;26.90;33.20;94258.31;5049069;28;20187;-86
2022/05/23 12:27:45;;;;;;;3.63;1.58;;;;;;;26.81;32.56;94243.31;5048377;28;20628;-87
2022/05/23 12:30:35;;;;;;;1.92;1.60;;;;;;;26.72;33.28;94253.38;5032460;28;20183;-86
2022/05/23 12:33:00;;;;;;;1.95;1.70;;;;;;;26.72;34.27;94250.66;5039765;28;20210;-86
2022/05/23 12:35:49;;;;;;;1.77;1.60;;;;;;;26.71;34.24;94249.88;5047576;28;20179;-86
2022/05/23 12:38:42;;;;;;;5.18;2.38;;;;;;;26.69;33.98;94254.81;5053645;28;20171;-86
2022/05/23 12:41:29;;;;;;;4.00;1.70;;;;;;;26.63;34.07;94254.22;5014984;28;20187;-86
2022/05/23 12:43:57;;;;;;;4.90;1.98;;;;;;;26.57;32.92;94258.19;5053733;28;21035;-86
2022/05/23 12:46:42;;;;;;;7.22;2.13;;;;;;;26.43;33.89;94241.44;5036155;28;20182;-86